Time;durP1;ratioP1;P1;durP2;ratioP2;P2;SDS_P1;SDS_P2;PMS_P1;PMS_P2;Temp;Humidity;BMP_temperature;BMP_pressure;BME280_temperature;BME280_humidity;BME280_pressure;Samples;Min_cycle;Max_cycle;Signal;HPM_P1;HPM_P2
2021/12/27 00:01:05;;;;;;;27.15;18.70;;;0.60;99.90;;;;;;4998203;28;20104;-87
2021/12/27 00:03:31;;;;;;;30.33;19.92;;;0.60;99.90;;;;;;4994808;28;20044;-87
2021/12/27 00:05:57;;;;;;;26.92;17.92;;;0.60;99.90;;;;;;4992583;28;20288;-86
2021/12/27 00:08:23;;;;;;;25.33;17.67;;;0.60;99.90;;;;;;4991566;28;20047;-86
2021/12/27 00:10:52;;;;;;;26.83;18.55;;;0.60;99.90;;;;;;4997048;28;20087;-86
2021/12/27 00:13:19;;;;;;;29.33;20.13;;;0.60;99.90;;;;;;5002650;28;20245;-87
2021/12/27 00:15:45;;;;;;;27.85;19.05;;;0.60;99.90;;;;;;4979291;28;20425;-87
2021/12/27 00:18:11;;;;;;;27.92;19.30;;;0.60;99.90;;;;;;4996552;28;20737;-87
2021/12/27 00:20:37;;;;;;;28.60;20.33;;;0.60;99.90;;;;;;5016788;28;20937;-87
2021/12/27 00:23:06;;;;;;;27.50;19.75;;;0.70;99.90;;;;;;5017276;28;20151;-87
2021/12/27 00:25:32;;;;;;;28.10;20.13;;;0.60;99.90;;;;;;4999690;28;20429;-87
2021/12/27 00:27:58;;;;;;;28.48;20.55;;;0.70;99.90;;;;;;5015999;28;20815;-87
2021/12/27 00:30:24;;;;;;;29.23;20.38;;;0.60;99.90;;;;;;4996026;28;20051;-87
2021/12/27 00:32:53;;;;;;;28.00;20.02;;;0.70;99.90;;;;;;5020242;28;20055;-87
2021/12/27 00:35:22;;;;;;;26.02;19.17;;;0.70;99.90;;;;;;5018452;28;20447;-87
2021/12/27 00:37:48;;;;;;;28.17;19.65;;;0.70;99.90;;;;;;5001811;28;20504;-87
2021/12/27 00:40:14;;;;;;;29.23;20.02;;;0.70;99.90;;;;;;5015442;28;20501;-86
2021/12/27 00:42:41;;;;;;;28.48;19.90;;;0.70;99.90;;;;;;4999454;28;20485;-88
2021/12/27 00:45:07;;;;;;;27.65;19.92;;;0.70;99.90;;;;;;5016625;28;20062;-87
2021/12/27 00:47:33;;;;;;;29.30;19.95;;;0.70;99.90;;;;;;4999481;28;20047;-87
2021/12/27 00:49:59;;;;;;;27.45;18.67;;;0.80;99.90;;;;;;4971553;28;20429;-88
2021/12/27 00:52:27;;;;;;;29.83;20.40;;;0.70;99.90;;;;;;5018383;28;20721;-86
2021/12/27 00:54:53;;;;;;;29.05;20.30;;;0.70;99.90;;;;;;4986635;28;20054;-86
2021/12/27 00:57:19;;;;;;;30.63;20.52;;;0.70;99.90;;;;;;4985336;28;20442;-87
2021/12/27 00:59:45;;;;;;;29.92;21.17;;;0.70;99.90;;;;;;5021651;28;20043;-88
2021/12/27 01:02:10;;;;;;;30.23;20.05;;;0.80;99.90;;;;;;4982327;28;20338;-87
2021/12/27 01:04:36;;;;;;;30.23;20.48;;;0.70;99.90;;;;;;5022795;28;20074;-88
2021/12/27 01:07:02;;;;;;;29.60;20.42;;;0.70;99.90;;;;;;5000709;28;20039;-87
2021/12/27 01:12:30;;;;;;;31.73;21.23;;;0.70;99.90;;;;;;5024134;28;20048;-87
2021/12/27 01:15:10;;;;;;;30.55;20.80;;;0.80;99.90;;;;;;5019774;28;20046;-88
2021/12/27 01:17:38;;;;;;;31.00;20.27;;;0.70;99.90;;;;;;5021763;28;20932;-87
2021/12/27 01:20:07;;;;;;;33.50;21.25;;;0.70;99.90;;;;;;4992285;28;20704;-86
2021/12/27 01:22:33;;;;;;;30.88;21.42;;;0.80;99.90;;;;;;5033411;28;20051;-87
2021/12/27 01:24:59;;;;;;;30.85;21.67;;;0.80;99.90;;;;;;4997959;28;20043;-87
2021/12/27 01:27:26;;;;;;;29.67;21.13;;;0.80;99.90;;;;;;4987042;28;20040;-87
2021/12/27 01:29:52;;;;;;;32.13;22.10;;;0.80;99.90;;;;;;5001017;28;20784;-87
2021/12/27 01:32:18;;;;;;;30.98;22.25;;;0.80;99.90;;;;;;4983098;28;20129;-86
2021/12/27 01:34:44;;;;;;;28.67;20.70;;;0.70;99.90;;;;;;4968207;28;20047;-86
2021/12/27 01:37:09;;;;;;;30.15;21.05;;;0.70;99.90;;;;;;5006031;28;20056;-87
2021/12/27 01:39:35;;;;;;;30.83;21.48;;;0.70;99.90;;;;;;5003888;28;20778;-87
2021/12/27 01:42:01;;;;;;;30.40;21.60;;;0.80;99.90;;;;;;5011130;28;20048;-87
2021/12/27 01:44:27;;;;;;;29.40;21.35;;;0.80;99.90;;;;;;4995822;28;20046;-87
2021/12/27 01:46:53;;;;;;;31.85;21.92;;;0.80;99.90;;;;;;4985947;28;20065;-87
2021/12/27 01:49:19;;;;;;;30.20;21.80;;;0.70;99.90;;;;;;5018400;28;20859;-87
2021/12/27 01:51:45;;;;;;;32.00;22.30;;;0.80;99.90;;;;;;4996133;28;20559;-87
2021/12/27 01:54:11;;;;;;;33.70;23.70;;;0.80;99.90;;;;;;5016020;28;20473;-87
2021/12/27 01:56:38;;;;;;;32.35;22.75;;;0.80;99.90;;;;;;5017013;28;20551;-87
2021/12/27 01:59:05;;;;;;;33.05;23.63;;;0.70;99.90;;;;;;5000187;28;20492;-87
2021/12/27 02:01:31;;;;;;;35.30;22.83;;;0.70;99.90;;;;;;4983390;28;20195;-87
2021/12/27 02:03:57;;;;;;;32.95;22.65;;;0.80;99.90;;;;;;5014260;28;20437;-86
2021/12/27 02:06:25;;;;;;;32.88;23.77;;;0.70;99.90;;;;;;4998580;28;20847;-87
2021/12/27 02:08:51;;;;;;;30.85;22.20;;;0.80;99.90;;;;;;4996977;28;20047;-87
2021/12/27 02:11:19;;;;;;;31.05;22.25;;;0.80;99.90;;;;;;4988525;28;20212;-87
2021/12/27 02:13:46;;;;;;;34.40;23.33;;;0.80;99.90;;;;;;4999898;28;20048;-87
2021/12/27 02:16:15;;;;;;;35.45;24.02;;;0.80;99.90;;;;;;4993506;28;20039;-87
2021/12/27 02:18:44;;;;;;;31.20;22.05;;;0.90;99.90;;;;;;5020240;28;20567;-87
2021/12/27 02:21:11;;;;;;;31.63;22.77;;;0.80;99.90;;;;;;5008725;28;20377;-87
2021/12/27 02:23:39;;;;;;;31.08;23.00;;;0.80;99.90;;;;;;5017459;28;20410;-88
2021/12/27 02:26:05;;;;;;;31.10;22.52;;;0.80;99.90;;;;;;4986495;28;20100;-87
2021/12/27 02:28:32;;;;;;;30.90;22.38;;;0.80;99.90;;;;;;4998929;28;20052;-87
2021/12/27 02:30:58;;;;;;;30.95;22.67;;;0.80;99.90;;;;;;4987770;28;20051;-86
2021/12/27 02:33:24;;;;;;;33.90;23.88;;;0.80;99.90;;;;;;4999824;28;20048;-86
2021/12/27 02:35:55;;;;;;;32.97;23.60;;;0.90;99.90;;;;;;5004087;28;20102;-87
2021/12/27 02:38:33;;;;;;;33.22;23.92;;;0.80;99.90;;;;;;4993781;28;20144;-87
2021/12/27 02:40:59;;;;;;;31.15;22.77;;;0.90;99.90;;;;;;5018218;28;20044;-87
2021/12/27 02:43:30;;;;;;;31.42;23.25;;;0.90;99.90;;;;;;5015853;28;20052;-87
2021/12/27 02:46:05;;;;;;;34.60;24.40;;;0.90;99.90;;;;;;5021513;28;20039;-87
2021/12/27 02:48:38;;;;;;;35.25;23.60;;;0.90;99.90;;;;;;5019294;28;20048;-87
2021/12/27 02:51:04;;;;;;;34.17;22.27;;;0.80;99.90;;;;;;5017804;28;20070;-86
2021/12/27 02:53:30;;;;;;;32.58;21.92;;;0.90;99.90;;;;;;5029270;28;20064;-86
2021/12/27 02:55:57;;;;;;;34.28;23.42;;;0.90;99.90;;;;;;5015362;28;20083;-87
2021/12/27 02:58:25;;;;;;;31.77;23.00;;;0.90;99.90;;;;;;5002850;28;20093;-86
2021/12/27 03:00:56;;;;;;;34.75;24.88;;;0.90;99.90;;;;;;5017634;28;20066;-86
2021/12/27 03:03:22;;;;;;;35.97;24.75;;;0.90;99.90;;;;;;5011087;28;20051;-87
2021/12/27 03:05:49;;;;;;;33.65;24.33;;;0.90;99.90;;;;;;5011888;28;20082;-87
2021/12/27 03:08:16;;;;;;;34.78;23.17;;;0.90;99.90;;;;;;4991715;28;20047;-87
2021/12/27 03:10:49;;;;;;;35.25;24.50;;;0.90;99.90;;;;;;4995274;28;20154;-87
2021/12/27 03:13:24;;;;;;;33.70;23.50;;;0.90;99.90;;;;;;5007080;28;20044;-87
2021/12/27 03:15:52;;;;;;;33.33;23.92;;;0.90;99.90;;;;;;5016045;28;20615;-87
2021/12/27 03:18:18;;;;;;;34.08;23.40;;;0.90;99.90;;;;;;5016398;28;20496;-87
2021/12/27 03:20:44;;;;;;;36.50;25.55;;;0.90;99.90;;;;;;5005493;28;20146;-86
2021/12/27 03:23:10;;;;;;;34.17;24.92;;;0.90;99.90;;;;;;5020227;28;20508;-86
2021/12/27 03:25:36;;;;;;;35.42;24.45;;;0.90;99.90;;;;;;5000540;28;20105;-87
2021/12/27 03:28:03;;;;;;;32.25;24.55;;;0.90;99.90;;;;;;5020921;28;20048;-87
2021/12/27 03:30:29;;;;;;;37.15;25.33;;;0.90;99.90;;;;;;5017795;28;20145;-86
2021/12/27 03:32:55;;;;;;;35.28;25.40;;;0.90;99.90;;;;;;4996228;28;20977;-87
2021/12/27 03:35:27;;;;;;;34.65;24.23;;;0.90;99.90;;;;;;4984454;28;20047;-87
2021/12/27 03:37:58;;;;;;;33.38;23.48;;;0.90;99.90;;;;;;5000469;28;20908;-87
2021/12/27 03:40:26;;;;;;;34.75;24.20;;;0.90;99.90;;;;;;4999621;28;20050;-86
2021/12/27 03:42:55;;;;;;;34.22;25.00;;;1.00;99.90;;;;;;4980890;28;20376;-87
2021/12/27 03:45:28;;;;;;;35.05;25.05;;;1.00;99.90;;;;;;5018911;28;20047;-87
2021/12/27 03:47:55;;;;;;;35.72;24.25;;;1.00;99.90;;;;;;4996020;28;20532;-87
2021/12/27 03:50:26;;;;;;;34.80;24.48;;;1.00;99.90;;;;;;5037062;28;20604;-87
2021/12/27 03:52:53;;;;;;;33.58;25.20;;;1.00;99.90;;;;;;5019075;28;20050;-87
2021/12/27 03:55:20;;;;;;;36.08;26.02;;;0.90;99.90;;;;;;4986608;28;20055;-86
2021/12/27 03:57:54;;;;;;;35.55;25.75;;;1.00;99.90;;;;;;4998722;28;20853;-87
2021/12/27 04:02:51;;;;;;;33.20;24.75;;;1.00;99.90;;;;;;5017146;28;20589;-87
2021/12/27 04:05:18;;;;;;;34.50;25.25;;;1.00;99.90;;;;;;5018567;28;20067;-86
2021/12/27 04:07:46;;;;;;;34.90;25.30;;;1.00;99.90;;;;;;5011676;28;20051;-87
2021/12/27 04:10:13;;;;;;;37.25;26.13;;;1.00;99.90;;;;;;5008405;28;20755;-86
2021/12/27 04:12:39;;;;;;;34.63;24.38;;;1.00;99.90;;;;;;5014440;28;20248;-87
2021/12/27 04:15:08;;;;;;;34.63;24.52;;;1.00;99.90;;;;;;5015999;28;20047;-86
2021/12/27 04:17:33;;;;;;;36.75;25.38;;;1.00;99.90;;;;;;4997872;28;20777;-86
2021/12/27 04:20:00;;;;;;;36.47;25.55;;;1.00;99.90;;;;;;4994591;28;20043;-87
2021/12/27 04:22:26;;;;;;;37.38;26.35;;;1.00;99.90;;;;;;5015050;28;20047;-86
2021/12/27 04:24:51;;;;;;;36.40;25.73;;;1.00;99.90;;;;;;5003077;28;20052;-86
2021/12/27 04:27:17;;;;;;;37.17;25.92;;;1.00;99.90;;;;;;5013746;28;20050;-86
2021/12/27 04:29:43;;;;;;;34.75;24.85;;;1.00;99.90;;;;;;5019365;28;20500;-86
2021/12/27 04:32:09;;;;;;;35.70;23.80;;;1.00;99.90;;;;;;4998841;28;20393;-87
2021/12/27 04:34:35;;;;;;;33.75;23.70;;;1.00;99.90;;;;;;4979261;28;21096;-87
2021/12/27 04:37:02;;;;;;;38.35;25.65;;;1.00;99.90;;;;;;4993336;28;20097;-87
2021/12/27 04:39:27;;;;;;;36.40;25.55;;;1.00;99.90;;;;;;5019082;28;21051;-86
2021/12/27 04:41:54;;;;;;;33.75;24.55;;;1.10;99.90;;;;;;5001638;28;20040;-86
2021/12/27 04:44:20;;;;;;;34.30;24.48;;;1.10;99.90;;;;;;4995142;28;20044;-86
2021/12/27 04:46:46;;;;;;;37.25;26.17;;;1.10;99.90;;;;;;4984878;28;20055;-87
2021/12/27 04:49:12;;;;;;;35.33;26.27;;;1.00;99.90;;;;;;4997488;28;20086;-87
2021/12/27 04:51:37;;;;;;;36.78;25.73;;;1.00;99.90;;;;;;5001217;28;20047;-87
2021/12/27 04:54:03;;;;;;;36.67;25.52;;;1.10;99.90;;;;;;5015595;28;20052;-86
2021/12/27 04:56:32;;;;;;;37.40;26.10;;;1.10;99.90;;;;;;5010801;28;20040;-87
2021/12/27 04:58:58;;;;;;;38.83;26.27;;;1.10;99.90;;;;;;5014990;28;20101;-87
2021/12/27 05:01:24;;;;;;;37.65;24.33;;;1.10;99.90;;;;;;4997885;28;20115;-87
2021/12/27 05:03:49;;;;;;;35.40;26.10;;;1.20;99.90;;;;;;5007911;28;20052;-86
2021/12/27 05:06:17;;;;;;;37.15;26.00;;;1.20;99.90;;;;;;4980064;28;20111;-86
2021/12/27 05:08:43;;;;;;;36.03;24.98;;;1.20;99.90;;;;;;5003198;28;20052;-86
2021/12/27 05:11:09;;;;;;;36.90;27.05;;;1.20;99.90;;;;;;5014541;28;20673;-87
2021/12/27 05:13:36;;;;;;;35.63;25.75;;;1.20;99.90;;;;;;4994638;28;21030;-87
2021/12/27 05:16:03;;;;;;;37.25;26.08;;;1.20;99.90;;;;;;4997165;28;20419;-87
2021/12/27 05:18:29;;;;;;;37.33;25.60;;;1.20;99.90;;;;;;5015785;28;20520;-86
2021/12/27 05:21:03;;;;;;;37.55;26.90;;;1.20;99.90;;;;;;4989513;28;20447;-87
2021/12/27 05:23:30;;;;;;;39.20;26.30;;;1.30;99.90;;;;;;4997323;28;20055;-87
2021/12/27 05:25:56;;;;;;;37.65;26.48;;;1.20;99.90;;;;;;4992356;28;20381;-87
2021/12/27 05:28:22;;;;;;;37.00;25.85;;;1.20;99.90;;;;;;4982833;28;20039;-87
2021/12/27 05:30:51;;;;;;;37.45;26.17;;;1.30;99.90;;;;;;4984829;28;20043;-88
2021/12/27 05:33:20;;;;;;;37.83;26.63;;;1.30;99.90;;;;;;4984443;28;20161;-87
2021/12/27 05:35:47;;;;;;;34.75;24.42;;;1.30;99.90;;;;;;4984794;28;20346;-88
2021/12/27 05:38:14;;;;;;;37.20;25.30;;;1.30;99.90;;;;;;5020086;28;20058;-87
2021/12/27 05:40:39;;;;;;;37.15;25.88;;;1.30;99.90;;;;;;4994278;28;20645;-87
2021/12/27 05:43:06;;;;;;;39.88;25.70;;;1.30;99.90;;;;;;4997120;28;20471;-87
2021/12/27 05:45:35;;;;;;;37.05;26.10;;;1.30;99.90;;;;;;4996712;28;20092;-87
2021/12/27 05:48:01;;;;;;;37.53;24.98;;;1.30;99.90;;;;;;5017698;28;20707;-88
2021/12/27 05:50:27;;;;;;;38.40;26.92;;;1.40;99.90;;;;;;5013182;28;20050;-87
2021/12/27 05:52:53;;;;;;;39.03;26.45;;;1.30;99.90;;;;;;4985428;28;20048;-87
2021/12/27 05:55:19;;;;;;;37.88;27.13;;;1.40;99.90;;;;;;4999805;28;20766;-87
2021/12/27 05:57:45;;;;;;;39.00;27.20;;;1.40;99.90;;;;;;4979859;28;20079;-88
2021/12/27 06:00:13;;;;;;;37.28;26.30;;;1.40;99.90;;;;;;5002807;28;21010;-87
2021/12/27 06:02:40;;;;;;;37.83;26.17;;;1.40;99.90;;;;;;5017628;28;20043;-87
2021/12/27 06:05:06;;;;;;;39.35;27.48;;;1.30;99.90;;;;;;5021139;28;20413;-87
2021/12/27 06:07:32;;;;;;;40.38;27.98;;;1.30;99.90;;;;;;5018651;28;20481;-87
2021/12/27 06:09:59;;;;;;;42.50;28.65;;;1.30;99.90;;;;;;4993795;28;20126;-88
2021/12/27 06:12:24;;;;;;;37.85;26.90;;;1.40;99.90;;;;;;4992961;28;20032;-87
2021/12/27 06:14:50;;;;;;;40.90;26.27;;;1.40;99.90;;;;;;5011382;28;20039;-87
2021/12/27 06:17:16;;;;;;;38.35;27.35;;;1.40;99.90;;;;;;4993072;28;20612;-88
2021/12/27 06:19:42;;;;;;;41.08;28.08;;;1.40;99.90;;;;;;5002883;28;20694;-88
2021/12/27 06:22:09;;;;;;;41.22;28.02;;;1.30;99.90;;;;;;4985809;28;20158;-87
2021/12/27 06:24:34;;;;;;;41.35;29.48;;;1.40;99.90;;;;;;5015457;28;20503;-88
2021/12/27 06:27:00;;;;;;;42.65;28.83;;;1.40;99.90;;;;;;4993003;28;20071;-87
2021/12/27 06:29:26;;;;;;;41.78;28.60;;;1.40;99.90;;;;;;4999653;28;20079;-87
2021/12/27 06:31:52;;;;;;;39.83;28.13;;;1.40;99.90;;;;;;4996401;28;20044;-88
2021/12/27 06:34:18;;;;;;;40.67;27.90;;;1.40;99.90;;;;;;4994159;28;20054;-86
2021/12/27 06:36:44;;;;;;;39.92;28.45;;;1.50;99.90;;;;;;4982618;28;20496;-89
2021/12/27 06:39:10;;;;;;;41.80;28.00;;;1.50;99.90;;;;;;4988465;28;20120;-88
2021/12/27 06:41:36;;;;;;;38.58;26.45;;;1.50;99.90;;;;;;4995518;28;20497;-89
2021/12/27 06:44:03;;;;;;;39.30;27.55;;;1.50;99.90;;;;;;4985194;28;20047;-88
2021/12/27 06:46:29;;;;;;;40.33;27.17;;;1.50;99.90;;;;;;5015518;28;20052;-88
2021/12/27 06:48:54;;;;;;;39.42;27.60;;;1.50;99.90;;;;;;5020317;28;20051;-87
2021/12/27 06:51:21;;;;;;;39.95;28.02;;;1.50;99.90;;;;;;4991492;28;20040;-87
2021/12/27 06:53:47;;;;;;;40.35;27.42;;;1.50;99.90;;;;;;5013942;28;20433;-87
2021/12/27 06:56:13;;;;;;;40.90;27.50;;;1.50;99.90;;;;;;5002412;28;20051;-87
2021/12/27 06:58:39;;;;;;;39.30;27.90;;;1.50;99.90;;;;;;5021212;28;20043;-88
2021/12/27 07:01:05;;;;;;;40.45;26.92;;;1.50;99.90;;;;;;5019013;28;20047;-88
2021/12/27 07:03:31;;;;;;;39.88;27.90;;;1.50;99.90;;;;;;4984483;28;20074;-87
2021/12/27 07:05:59;;;;;;;41.75;28.38;;;1.50;99.90;;;;;;4986748;28;20615;-87
2021/12/27 07:08:28;;;;;;;38.70;26.40;;;1.50;99.90;;;;;;5003470;28;20961;-86
2021/12/27 07:10:54;;;;;;;39.83;27.17;;;1.50;99.90;;;;;;5004139;28;20552;-86
2021/12/27 07:13:21;;;;;;;41.40;27.33;;;1.50;99.90;;;;;;4990326;28;20082;-87
2021/12/27 07:15:49;;;;;;;44.85;28.50;;;1.60;99.90;;;;;;5019570;28;20629;-86
2021/12/27 07:18:22;;;;;;;38.45;26.50;;;1.60;99.90;;;;;;4997433;28;20831;-87
2021/12/27 07:20:51;;;;;;;45.15;28.13;;;1.70;99.90;;;;;;5021981;28;20419;-87
2021/12/27 07:23:18;;;;;;;42.80;28.02;;;1.60;99.90;;;;;;5004624;28;20096;-87
2021/12/27 07:25:44;;;;;;;40.97;27.63;;;1.70;99.90;;;;;;5000885;28;20050;-86
2021/12/27 07:28:10;;;;;;;41.80;27.10;;;1.60;99.90;;;;;;4985377;28;20055;-87
2021/12/27 07:30:35;;;;;;;43.58;27.98;;;1.60;99.90;;;;;;5021838;28;20460;-87
2021/12/27 07:33:01;;;;;;;45.42;28.42;;;1.70;99.90;;;;;;5019205;28;20455;-86
2021/12/27 07:35:27;;;;;;;43.67;27.17;;;1.60;99.90;;;;;;5000639;28;20354;-87
2021/12/27 07:37:53;;;;;;;41.28;27.15;;;1.70;99.90;;;;;;5021913;28;20055;-87
2021/12/27 07:40:19;;;;;;;44.20;28.40;;;1.70;99.90;;;;;;5022293;28;20162;-87
2021/12/27 07:42:45;;;;;;;46.08;28.45;;;1.70;99.90;;;;;;5000948;28;20050;-87
2021/12/27 07:45:11;;;;;;;41.85;27.88;;;1.70;99.90;;;;;;4968370;28;20396;-87
2021/12/27 07:47:37;;;;;;;45.13;28.23;;;1.70;99.90;;;;;;4978684;28;20071;-86
2021/12/27 07:50:05;;;;;;;48.95;29.45;;;1.80;99.90;;;;;;5018717;28;20228;-83
2021/12/27 07:52:31;;;;;;;49.55;29.00;;;1.70;99.90;;;;;;5013734;28;20043;-84
2021/12/27 07:54:57;;;;;;;47.40;27.20;;;1.90;99.90;;;;;;5018193;28;20554;-84
2021/12/27 07:57:23;;;;;;;43.80;27.25;;;1.80;99.90;;;;;;4982962;28;20471;-87
2021/12/27 07:59:49;;;;;;;43.97;28.15;;;1.90;99.90;;;;;;4994073;28;20048;-87
2021/12/27 08:02:16;;;;;;;44.08;27.65;;;1.80;99.90;;;;;;5018419;28;20089;-88
2021/12/27 08:04:42;;;;;;;43.20;27.80;;;1.80;99.90;;;;;;4993569;28;20844;-86
2021/12/27 08:07:08;;;;;;;44.70;28.17;;;1.80;99.90;;;;;;5004491;28;20067;-87
2021/12/27 08:09:34;;;;;;;46.63;27.60;;;1.80;99.90;;;;;;4999747;28;20467;-89
2021/12/27 08:12:00;;;;;;;44.30;27.15;;;1.80;99.90;;;;;;5004306;28;20571;-88
2021/12/27 08:14:26;;;;;;;49.63;28.45;;;1.90;99.90;;;;;;5024566;28;20149;-86
2021/12/27 08:16:52;;;;;;;46.25;27.75;;;1.90;99.90;;;;;;5019816;28;20044;-85
2021/12/27 08:19:18;;;;;;;45.28;27.77;;;1.90;99.90;;;;;;4993592;28;20403;-86
2021/12/27 08:21:44;;;;;;;49.53;28.90;;;1.90;99.90;;;;;;5017938;28;20480;-84
2021/12/27 08:24:10;;;;;;;51.35;28.75;;;2.00;99.90;;;;;;5017602;28;20483;-86
2021/12/27 08:26:37;;;;;;;46.17;27.92;;;1.90;99.90;;;;;;5004197;28;20702;-86
2021/12/27 08:29:07;;;;;;;53.45;28.65;;;2.00;99.90;;;;;;5018532;28;20146;-86
2021/12/27 08:31:33;;;;;;;51.50;29.48;;;2.00;99.90;;;;;;5020976;28;20995;-85
2021/12/27 08:33:58;;;;;;;51.00;29.67;;;2.00;99.90;;;;;;4997556;28;20043;-86
2021/12/27 08:36:24;;;;;;;54.10;30.13;;;2.00;99.90;;;;;;4980102;28;20044;-85
2021/12/27 08:38:51;;;;;;;54.83;29.80;;;1.90;99.90;;;;;;5027483;28;20902;-86
2021/12/27 08:41:18;;;;;;;54.38;29.05;;;2.00;99.90;;;;;;5015481;28;20116;-83
2021/12/27 08:43:45;;;;;;;56.40;30.60;;;2.00;99.90;;;;;;5015749;28;20088;-86
2021/12/27 08:46:11;;;;;;;52.30;30.45;;;2.00;99.90;;;;;;5017496;28;20056;-86
2021/12/27 08:48:40;;;;;;;56.65;31.60;;;1.90;99.90;;;;;;5014638;28;20089;-86
2021/12/27 08:51:06;;;;;;;61.40;32.33;;;2.00;99.90;;;;;;5012407;28;20265;-86
2021/12/27 08:53:32;;;;;;;62.63;32.30;;;1.90;99.90;;;;;;5015099;28;20124;-86
2021/12/27 08:55:58;;;;;;;69.90;33.83;;;1.90;99.90;;;;;;5018630;28;20055;-86
2021/12/27 08:58:24;;;;;;;72.25;33.90;;;2.00;99.90;;;;;;4996482;28;20625;-86
2021/12/27 09:00:49;;;;;;;69.47;32.97;;;2.00;99.90;;;;;;4991975;28;20058;-87
2021/12/27 09:03:15;;;;;;;66.65;33.03;;;2.00;99.90;;;;;;5013276;28;20527;-86
2021/12/27 09:05:42;;;;;;;80.65;35.92;;;2.00;99.90;;;;;;5004068;28;21022;-86
2021/12/27 09:08:09;;;;;;;83.32;34.90;;;2.00;99.90;;;;;;4985056;28;20079;-87
2021/12/27 09:10:35;;;;;;;80.93;35.70;;;2.00;99.90;;;;;;5001279;28;20567;-84
2021/12/27 09:13:01;;;;;;;67.53;35.35;;;2.10;99.90;;;;;;5013427;28;20047;-83
2021/12/27 09:15:28;;;;;;;79.15;36.30;;;2.00;99.90;;;;;;5016184;28;20050;-84
2021/12/27 09:17:54;;;;;;;87.72;38.72;;;2.10;99.90;;;;;;5013898;28;20043;-85
2021/12/27 09:20:21;;;;;;;96.30;37.50;;;2.00;99.90;;;;;;4994392;28;20184;-88
2021/12/27 09:22:47;;;;;;;77.28;35.72;;;2.00;99.90;;;;;;5015393;28;20441;-87
2021/12/27 09:25:13;;;;;;;94.40;39.33;;;2.00;99.90;;;;;;4994503;28;20047;-87
2021/12/27 09:27:39;;;;;;;100.35;40.53;;;1.90;99.90;;;;;;5013341;28;20849;-87
2021/12/27 09:30:06;;;;;;;92.30;39.35;;;2.10;99.90;;;;;;5007471;28;20047;-85
2021/12/27 09:32:32;;;;;;;106.32;41.88;;;2.10;99.90;;;;;;5009303;28;20553;-87
2021/12/27 09:34:59;;;;;;;123.40;41.95;;;2.10;99.90;;;;;;5017520;28;20531;-87
2021/12/27 09:37:25;;;;;;;117.00;43.70;;;2.10;99.90;;;;;;5008649;28;20047;-87
2021/12/27 09:39:53;;;;;;;130.85;44.75;;;2.20;99.90;;;;;;5019140;28;20454;-88
2021/12/27 09:42:24;;;;;;;129.20;44.30;;;2.20;99.90;;;;;;5018299;28;20130;-87
2021/12/27 09:44:52;;;;;;;136.95;46.28;;;2.20;99.90;;;;;;4987980;28;20211;-87
2021/12/27 09:47:18;;;;;;;130.05;43.65;;;2.20;99.90;;;;;;5005098;28;20734;-91
2021/12/27 09:49:46;;;;;;;142.68;44.65;;;2.30;99.90;;;;;;4988655;28;20561;-87
2021/12/27 09:52:12;;;;;;;107.55;42.05;;;2.20;99.90;;;;;;4982577;28;20531;-86
2021/12/27 09:54:39;;;;;;;125.88;43.78;;;2.30;99.90;;;;;;4971051;28;20078;-87
2021/12/27 09:57:05;;;;;;;149.45;47.03;;;2.30;99.90;;;;;;4986923;28;20052;-88
2021/12/27 09:59:31;;;;;;;113.78;42.50;;;2.40;99.90;;;;;;4989258;28;20048;-87
2021/12/27 10:01:57;;;;;;;126.60;44.85;;;2.30;99.90;;;;;;5006462;28;20043;-87
2021/12/27 10:04:23;;;;;;;153.70;45.88;;;2.40;99.90;;;;;;5001427;28;20369;-87
2021/12/27 10:06:49;;;;;;;131.48;43.75;;;2.40;99.90;;;;;;4983655;28;20047;-85
2021/12/27 10:09:15;;;;;;;134.15;44.47;;;2.40;99.90;;;;;;5003535;28;20503;-85
2021/12/27 10:11:43;;;;;;;113.93;41.13;;;2.50;99.90;;;;;;4981694;28;20626;-84
2021/12/27 10:14:17;;;;;;;133.25;42.42;;;2.40;99.90;;;;;;5003169;28;20100;-86
2021/12/27 10:16:53;;;;;;;124.22;42.30;;;2.50;99.90;;;;;;5006010;28;20423;-88
2021/12/27 10:19:22;;;;;;;117.60;41.33;;;2.50;99.90;;;;;;5026681;28;20040;-87
2021/12/27 10:21:51;;;;;;;114.53;41.85;;;2.60;99.90;;;;;;5004160;28;20546;-88
2021/12/27 10:24:21;;;;;;;125.88;42.95;;;2.50;99.90;;;;;;4989720;28;20234;-85
2021/12/27 10:26:52;;;;;;;124.57;41.88;;;2.50;99.90;;;;;;4977908;28;20402;-85
2021/12/27 10:29:23;;;;;;;105.68;39.72;;;2.60;99.90;;;;;;4986773;28;20050;-87
2021/12/27 10:31:49;;;;;;;108.50;39.75;;;2.70;99.90;;;;;;5010350;28;20548;-87
2021/12/27 10:34:15;;;;;;;104.35;40.28;;;2.70;99.90;;;;;;5017928;28;20101;-88
2021/12/27 10:37:06;;;;;;;97.55;37.95;;;2.80;99.90;;;;;;4983024;28;20054;-88
2021/12/27 10:39:46;;;;;;;92.97;37.47;;;2.80;99.90;;;;;;5014647;28;20059;-87
2021/12/27 10:42:18;;;;;;;90.75;35.85;;;2.80;99.90;;;;;;5015095;28;20051;-87
2021/12/27 10:44:44;;;;;;;117.90;37.45;;;2.80;99.90;;;;;;5017217;28;20122;-87
2021/12/27 10:47:29;;;;;;;138.57;41.45;;;2.80;99.90;;;;;;5018450;28;21169;-88
2021/12/27 10:50:02;;;;;;;95.97;38.25;;;2.60;99.90;;;;;;5015365;28;20043;-88
2021/12/27 10:52:43;;;;;;;127.90;41.80;;;2.70;99.90;;;;;;5016360;28;20704;-87
2021/12/27 10:55:10;;;;;;;107.00;38.75;;;2.70;99.90;;;;;;4992993;28;20551;-87
2021/12/27 10:57:39;;;;;;;117.68;41.63;;;2.70;99.90;;;;;;5013174;28;20039;-88
2021/12/27 11:00:28;;;;;;;160.88;45.90;;;2.80;99.90;;;;;;4976412;28;20043;-85
2021/12/27 11:02:55;;;;;;;137.63;44.08;;;2.80;99.90;;;;;;5022988;28;20044;-87
2021/12/27 11:05:23;;;;;;;151.68;45.25;;;2.80;99.90;;;;;;5016431;28;20485;-86
2021/12/27 11:07:55;;;;;;;146.50;45.38;;;2.80;99.90;;;;;;5005119;28;20408;-87
2021/12/27 11:10:21;;;;;;;140.55;44.33;;;2.80;99.90;;;;;;5015324;28;20051;-87
2021/12/27 11:12:49;;;;;;;119.53;41.60;;;2.90;99.90;;;;;;4996544;28;20916;-87
2021/12/27 11:15:16;;;;;;;116.78;40.70;;;2.90;99.90;;;;;;4999189;28;20035;-85
2021/12/27 11:17:45;;;;;;;99.03;39.70;;;3.00;99.90;;;;;;5001792;28;20073;-85
2021/12/27 11:20:12;;;;;;;107.80;40.20;;;3.00;99.90;;;;;;5020697;28;20919;-87
2021/12/27 11:22:44;;;;;;;135.75;43.67;;;3.00;99.90;;;;;;5012943;28;20051;-86
2021/12/27 11:25:41;;;;;;;132.10;41.88;;;3.00;99.90;;;;;;4997638;28;20896;-86
2021/12/27 11:28:30;;;;;;;124.80;42.25;;;3.00;99.90;;;;;;4999750;28;20055;-86
2021/12/27 11:30:59;;;;;;;116.72;41.70;;;2.90;99.90;;;;;;5014545;28;20047;-85
2021/12/27 11:33:27;;;;;;;101.85;39.72;;;3.00;99.90;;;;;;4987621;28;20085;-86
2021/12/27 11:35:59;;;;;;;99.35;39.13;;;3.00;99.90;;;;;;5008409;28;20761;-86
2021/12/27 11:38:31;;;;;;;92.80;37.50;;;3.10;99.90;;;;;;4990419;28;20047;-86
2021/12/27 11:40:59;;;;;;;107.75;40.33;;;3.00;99.90;;;;;;4972965;28;20426;-85
2021/12/27 11:43:44;;;;;;;100.50;38.47;;;3.00;99.90;;;;;;4981338;28;20112;-85
2021/12/27 11:46:10;;;;;;;106.47;37.90;;;3.00;99.90;;;;;;4971797;28;20051;-86
2021/12/27 11:48:44;;;;;;;103.25;38.45;;;3.20;99.90;;;;;;4963357;28;20493;-85
2021/12/27 11:51:10;;;;;;;89.22;37.22;;;3.20;99.90;;;;;;5003500;28;20878;-87
2021/12/27 11:53:43;;;;;;;92.03;36.78;;;3.20;99.90;;;;;;4958629;28;20058;-84
2021/12/27 11:56:10;;;;;;;101.40;36.88;;;3.20;99.90;;;;;;5007054;28;20044;-86
2021/12/27 11:58:43;;;;;;;80.88;35.72;;;3.20;99.90;;;;;;4990855;28;20044;-87
2021/12/27 12:01:21;;;;;;;86.83;36.70;;;3.20;99.90;;;;;;4970396;28;20055;-85
2021/12/27 12:03:48;;;;;;;84.82;35.30;;;3.20;99.90;;;;;;4999273;28;20050;-86
2021/12/27 12:06:41;;;;;;;83.75;35.97;;;3.30;99.90;;;;;;4996581;28;20063;-86
2021/12/27 12:09:18;;;;;;;78.43;34.75;;;3.40;99.90;;;;;;5012179;28;20100;-85
2021/12/27 12:11:46;;;;;;;80.07;34.40;;;3.50;99.90;;;;;;5004970;28;20105;-84
2021/12/27 12:14:29;;;;;;;89.50;35.65;;;3.40;99.90;;;;;;5009082;28;20063;-85
2021/12/27 12:16:57;;;;;;;73.43;34.27;;;3.50;99.90;;;;;;5008628;28;20083;-84
2021/12/27 12:19:37;;;;;;;64.53;31.23;;;3.50;99.90;;;;;;5011285;28;20422;-85
2021/12/27 12:22:04;;;;;;;63.58;32.55;;;3.60;99.90;;;;;;4989420;28;20048;-85
2021/12/27 12:24:30;;;;;;;69.50;32.60;;;3.80;99.90;;;;;;4999858;28;20052;-83
2021/12/27 12:26:56;;;;;;;65.88;32.28;;;3.80;99.90;;;;;;5003743;28;20052;-84
2021/12/27 12:29:23;;;;;;;61.40;31.10;;;4.00;99.90;;;;;;4991236;28;20059;-84
2021/12/27 12:32:00;;;;;;;61.42;30.60;;;4.10;99.90;;;;;;5004980;28;20576;-83
2021/12/27 12:34:26;;;;;;;59.92;31.40;;;4.20;99.90;;;;;;5016246;28;20106;-86
2021/12/27 12:36:54;;;;;;;56.95;28.70;;;4.20;99.90;;;;;;5011970;28;20389;-85
2021/12/27 12:39:22;;;;;;;52.22;28.15;;;4.20;99.90;;;;;;5007421;28;20582;-84
2021/12/27 12:41:49;;;;;;;48.97;26.30;;;4.40;99.90;;;;;;5031367;28;20449;-83
2021/12/27 12:44:17;;;;;;;50.85;27.05;;;4.30;99.90;;;;;;5033283;28;20425;-85